Time;durP1;ratioP1;P1;durP2;ratioP2;P2;SDS_P1;SDS_P2;PMS_P1;PMS_P2;Temp;Humidity;BMP_temperature;BMP_pressure;BME280_temperature;BME280_humidity;BME280_pressure;Samples;Min_cycle;Max_cycle;Signal;HPM_P1;HPM_P2
2024/01/25 00:02:16;;;;;;;37.78;5.97;;;8.10;99.90;;;;;;5068515;28;20036;-50
2024/01/25 00:04:41;;;;;;;44.00;10.35;;;8.10;99.90;;;;;;5064113;28;20045;-49
2024/01/25 00:07:10;;;;;;;34.10;6.90;;;8.00;99.90;;;;;;5060481;28;20046;-51
2024/01/25 00:09:36;;;;;;;36.13;6.95;;;7.90;99.90;;;;;;5065578;28;20025;-49
2024/01/25 00:12:02;;;;;;;42.90;5.95;;;7.90;99.90;;;;;;5068939;28;20050;-51
2024/01/25 00:14:27;;;;;;;37.55;6.90;;;7.90;99.90;;;;;;5067724;28;20040;-51
2024/01/25 00:16:53;;;;;;;44.78;6.97;;;7.90;99.90;;;;;;5073248;28;20062;-48
2024/01/25 00:19:18;;;;;;;37.78;6.20;;;7.90;99.90;;;;;;5069410;28;20437;-51
2024/01/25 00:21:44;;;;;;;32.65;6.97;;;7.90;99.90;;;;;;5072081;28;20035;-51
2024/01/25 00:24:13;;;;;;;41.92;6.68;;;7.90;99.90;;;;;;5070529;28;20456;-50
2024/01/25 00:26:39;;;;;;;37.67;6.20;;;7.90;99.90;;;;;;5071106;28;20036;-49
2024/01/25 00:29:05;;;;;;;45.22;6.88;;;7.90;99.90;;;;;;5065432;28;20033;-52
2024/01/25 00:31:30;;;;;;;40.33;7.57;;;7.90;99.90;;;;;;5070511;28;20027;-51
2024/01/25 00:33:57;;;;;;;41.72;5.55;;;7.90;99.90;;;;;;5067519;28;20036;-51
2024/01/25 00:36:25;;;;;;;36.35;7.25;;;8.00;99.90;;;;;;5062859;28;20549;-51
2024/01/25 00:38:51;;;;;;;37.70;6.15;;;8.00;99.90;;;;;;5069472;28;20028;-50
2024/01/25 00:41:21;;;;;;;37.08;6.45;;;8.10;99.90;;;;;;5053763;28;20028;-50
2024/01/25 00:43:47;;;;;;;39.47;6.18;;;8.10;99.90;;;;;;5070450;28;20037;-51
2024/01/25 00:46:14;;;;;;;44.00;5.72;;;8.10;99.90;;;;;;5073098;28;20028;-50
2024/01/25 00:48:40;;;;;;;56.80;6.20;;;8.10;99.90;;;;;;5072412;28;20486;-50
2024/01/25 00:51:09;;;;;;;40.45;5.80;;;8.10;99.90;;;;;;5069994;28;20116;-53
2024/01/25 00:53:35;;;;;;;34.45;5.90;;;8.20;99.90;;;;;;5066132;28;20509;-51
2024/01/25 00:56:01;;;;;;;42.45;7.22;;;8.10;99.90;;;;;;5068726;28;20020;-51
2024/01/25 00:58:27;;;;;;;46.03;5.97;;;8.10;99.90;;;;;;5072445;28;20039;-50
2024/01/25 01:00:53;;;;;;;51.15;7.97;;;8.10;99.90;;;;;;5069087;28;20505;-51
2024/01/25 01:03:19;;;;;;;41.25;7.15;;;8.20;99.90;;;;;;5070698;28;20032;-50
2024/01/25 01:05:46;;;;;;;33.90;5.68;;;8.20;99.90;;;;;;5071240;28;20115;-50
2024/01/25 01:08:12;;;;;;;61.35;7.70;;;8.20;99.90;;;;;;5072533;28;20040;-51
2024/01/25 01:10:37;;;;;;;37.53;7.78;;;8.20;99.90;;;;;;5070853;28;20106;-50
2024/01/25 01:13:03;;;;;;;39.72;6.10;;;8.20;99.90;;;;;;5072407;28;20107;-49
2024/01/25 01:15:29;;;;;;;39.15;5.97;;;8.20;99.90;;;;;;5067007;28;20032;-50
2024/01/25 01:17:54;;;;;;;53.15;6.35;;;8.20;99.90;;;;;;5066834;28;20036;-50
2024/01/25 01:20:20;;;;;;;42.45;6.70;;;8.20;99.90;;;;;;5073737;28;20039;-56
2024/01/25 01:22:45;;;;;;;50.88;6.82;;;8.20;99.90;;;;;;5068297;22;20033;-49
2024/01/25 01:25:11;;;;;;;39.95;4.97;;;8.30;99.90;;;;;;5033135;28;20529;-48
2024/01/25 01:27:36;;;;;;;46.70;5.97;;;8.30;99.90;;;;;;5034671;28;20498;-49
2024/01/25 01:30:03;;;;;;;39.30;7.97;;;8.20;99.90;;;;;;5027505;28;20497;-49
2024/01/25 01:32:29;;;;;;;37.00;7.07;;;8.20;99.90;;;;;;5028036;28;20033;-48
2024/01/25 01:34:54;;;;;;;40.78;6.18;;;8.20;99.90;;;;;;5028414;28;20060;-52
2024/01/25 01:37:20;;;;;;;52.95;9.35;;;8.20;99.90;;;;;;5032730;28;20076;-47
2024/01/25 01:39:46;;;;;;;37.67;6.57;;;8.20;99.90;;;;;;5033021;28;20025;-48
2024/01/25 01:42:11;;;;;;;43.58;9.18;;;8.20;99.90;;;;;;5031815;28;20029;-48
2024/01/25 01:44:38;;;;;;;40.50;6.20;;;8.10;99.90;;;;;;5029707;28;20026;-50
2024/01/25 01:47:04;;;;;;;49.50;7.70;;;8.20;99.90;;;;;;5029930;28;20025;-48
2024/01/25 01:49:30;;;;;;;46.58;6.72;;;8.10;99.90;;;;;;5032138;28;20025;-46
2024/01/25 01:51:56;;;;;;;33.17;5.38;;;8.10;99.90;;;;;;5032388;28;20068;-48
2024/01/25 01:54:22;;;;;;;40.10;6.00;;;8.00;99.90;;;;;;5028995;28;20132;-47
2024/01/25 01:56:47;;;;;;;40.40;5.95;;;7.90;99.90;;;;;;5028210;28;20113;-50
2024/01/25 01:59:15;;;;;;;42.85;7.68;;;7.80;99.90;;;;;;5025609;28;20036;-49
2024/01/25 02:01:40;;;;;;;36.30;7.72;;;7.70;99.90;;;;;;5028091;28;20077;-48
2024/01/25 02:04:06;;;;;;;42.35;6.38;;;7.60;99.90;;;;;;5032931;28;20123;-48
2024/01/25 02:06:31;;;;;;;43.47;6.68;;;7.50;99.90;;;;;;5029491;28;20044;-51
2024/01/25 02:08:58;;;;;;;35.30;6.53;;;7.50;99.90;;;;;;5027314;28;20021;-48
2024/01/25 02:11:25;;;;;;;42.00;6.10;;;7.30;99.90;;;;;;5024574;28;20018;-49
2024/01/25 02:13:50;;;;;;;43.00;6.05;;;7.30;99.90;;;;;;5017690;28;20475;-50
2024/01/25 02:16:17;;;;;;;63.50;7.13;;;7.20;99.90;;;;;;5048386;28;20044;-48
2024/01/25 02:18:43;;;;;;;43.28;6.95;;;7.10;99.90;;;;;;5045644;28;20196;-47
2024/01/25 02:21:08;;;;;;;44.97;6.78;;;7.00;99.90;;;;;;5048617;28;20119;-50
2024/01/25 02:23:34;;;;;;;43.95;5.85;;;6.90;99.90;;;;;;5043642;28;20517;-47
2024/01/25 02:26:00;;;;;;;53.10;6.97;;;6.80;99.90;;;;;;5046131;28;20060;-47
2024/01/25 02:28:25;;;;;;;48.88;6.97;;;6.80;99.90;;;;;;5040659;28;20036;-48
2024/01/25 02:30:51;;;;;;;37.40;6.28;;;6.70;99.90;;;;;;5046522;28;20022;-48
2024/01/25 02:33:17;;;;;;;54.72;7.20;;;6.80;99.90;;;;;;5046519;28;20043;-50
2024/01/25 02:35:42;;;;;;;50.17;5.57;;;6.80;99.90;;;;;;5046063;28;20049;-48
2024/01/25 02:38:08;;;;;;;46.72;6.22;;;6.90;99.90;;;;;;5049654;28;20490;-49
2024/01/25 02:40:34;;;;;;;42.22;7.70;;;7.00;99.90;;;;;;5046244;28;20033;-47
2024/01/25 02:42:59;;;;;;;45.90;6.60;;;7.10;99.90;;;;;;5045352;28;20036;-50
2024/01/25 02:45:25;;;;;;;50.67;8.75;;;7.20;99.90;;;;;;5036220;28;20026;-49
2024/01/25 02:47:50;;;;;;;51.40;8.77;;;7.30;99.90;;;;;;5032617;28;20041;-48
2024/01/25 02:50:16;;;;;;;49.67;8.88;;;7.30;99.90;;;;;;5030025;28;20025;-50
2024/01/25 02:52:42;;;;;;;51.15;5.80;;;7.30;99.90;;;;;;5031044;28;20117;-49
2024/01/25 02:55:08;;;;;;;52.15;8.57;;;7.40;99.90;;;;;;5027168;28;20349;-48
2024/01/25 02:57:33;;;;;;;45.25;7.15;;;7.40;99.90;;;;;;5029823;28;20084;-47
2024/01/25 02:59:59;;;;;;;37.30;5.63;;;7.40;99.90;;;;;;5030413;28;20067;-47
2024/01/25 03:02:25;;;;;;;36.88;6.05;;;7.40;99.90;;;;;;5035299;28;20037;-48
2024/01/25 03:04:51;;;;;;;46.67;7.75;;;7.30;99.90;;;;;;5025886;28;20451;-50
2024/01/25 03:07:17;;;;;;;49.40;8.05;;;7.30;99.90;;;;;;5030597;28;20022;-48
2024/01/25 03:09:42;;;;;;;54.30;6.78;;;7.30;99.90;;;;;;5029874;28;20068;-51
2024/01/25 03:12:08;;;;;;;39.00;6.97;;;7.20;99.90;;;;;;5025503;28;20026;-48
2024/01/25 03:14:34;;;;;;;45.55;6.68;;;7.20;99.90;;;;;;5027915;28;20029;-48
2024/01/25 03:16:59;;;;;;;53.13;8.35;;;7.20;99.90;;;;;;5030297;28;20554;-49
2024/01/25 03:19:26;;;;;;;45.80;8.80;;;7.20;99.90;;;;;;5028233;28;20042;-49
2024/01/25 03:21:52;;;;;;;47.17;8.68;;;7.30;99.90;;;;;;5027874;28;20037;-49
2024/01/25 03:24:18;;;;;;;45.83;7.05;;;7.30;99.90;;;;;;5024803;28;20026;-48
2024/01/25 03:26:44;;;;;;;37.15;5.60;;;7.40;99.90;;;;;;5029548;28;20704;-51
2024/01/25 03:29:09;;;;;;;46.10;7.65;;;7.40;99.90;;;;;;5030945;28;20025;-48
2024/01/25 03:31:36;;;;;;;43.65;6.07;;;7.40;99.90;;;;;;5028926;28;20102;-46
2024/01/25 03:34:02;;;;;;;46.83;6.93;;;7.40;99.90;;;;;;5029041;28;20032;-47
2024/01/25 03:36:27;;;;;;;38.13;7.35;;;7.30;99.90;;;;;;5026043;28;20025;-48
2024/01/25 03:38:53;;;;;;;51.97;8.20;;;7.20;99.90;;;;;;5006120;28;20392;-48
2024/01/25 03:41:19;;;;;;;39.13;7.32;;;7.20;99.90;;;;;;5031632;28;20041;-48
2024/01/25 03:43:44;;;;;;;33.53;7.60;;;7.20;99.90;;;;;;5029344;28;20044;-47
2024/01/25 03:46:11;;;;;;;51.35;8.50;;;7.10;99.90;;;;;;5028385;28;20039;-50
2024/01/25 03:48:37;;;;;;;33.28;5.55;;;7.00;99.90;;;;;;5023224;28;20021;-49
2024/01/25 03:51:03;;;;;;;44.95;7.85;;;7.10;99.90;;;;;;5030008;28;20140;-48
2024/01/25 03:53:28;;;;;;;55.42;6.90;;;7.00;99.90;;;;;;5030708;28;20044;-48
2024/01/25 03:55:54;;;;;;;43.33;5.78;;;7.00;99.90;;;;;;5025734;28;20025;-49
2024/01/25 03:58:20;;;;;;;48.15;7.18;;;7.00;99.90;;;;;;5018262;28;20665;-50
2024/01/25 04:00:45;;;;;;;42.60;6.25;;;7.00;99.90;;;;;;5030622;28;20403;-49
2024/01/25 04:03:11;;;;;;;50.28;7.95;;;7.00;99.90;;;;;;5030212;28;20028;-48
2024/01/25 04:05:37;;;;;;;43.85;7.43;;;7.10;99.90;;;;;;5030971;28;20021;-51
2024/01/25 04:08:03;;;;;;;46.25;6.43;;;7.10;99.90;;;;;;5031241;28;20113;-47
2024/01/25 04:10:29;;;;;;;55.50;8.02;;;7.00;99.90;;;;;;5031115;28;20053;-49
2024/01/25 04:12:54;;;;;;;50.75;8.52;;;7.00;99.90;;;;;;5029272;28;20022;-47
2024/01/25 04:15:20;;;;;;;45.55;6.65;;;7.10;99.90;;;;;;5030884;28;20080;-51
2024/01/25 04:17:45;;;;;;;43.75;7.72;;;7.00;99.90;;;;;;5032022;28;20040;-50
2024/01/25 04:20:11;;;;;;;54.95;9.50;;;6.90;99.90;;;;;;5037161;28;20108;-48
2024/01/25 04:22:37;;;;;;;45.67;5.75;;;6.90;99.90;;;;;;5037574;28;20704;-47
2024/01/25 04:25:04;;;;;;;32.22;5.10;;;6.90;99.90;;;;;;5035066;28;20547;-51
2024/01/25 04:27:30;;;;;;;44.88;6.93;;;6.80;99.90;;;;;;5032044;28;20056;-51
2024/01/25 04:29:55;;;;;;;49.53;7.32;;;6.80;99.90;;;;;;5030610;28;20072;-48
2024/01/25 04:32:24;;;;;;;42.67;7.30;;;6.70;99.90;;;;;;5034957;28;20582;-47
2024/01/25 04:34:50;;;;;;;49.60;7.00;;;6.60;99.90;;;;;;5034895;28;20040;-53
2024/01/25 04:37:15;;;;;;;49.13;6.88;;;6.50;99.90;;;;;;5033511;28;20033;-49
2024/01/25 04:39:41;;;;;;;46.35;7.00;;;6.50;99.90;;;;;;5030458;28;20084;-47
2024/01/25 04:42:07;;;;;;;52.05;6.18;;;6.40;99.90;;;;;;5029254;28;20026;-47
2024/01/25 04:44:33;;;;;;;55.00;6.95;;;6.30;99.90;;;;;;5031490;28;20022;-47
2024/01/25 04:46:59;;;;;;;39.38;6.65;;;6.30;99.90;;;;;;5033897;28;20071;-52
2024/01/25 04:49:25;;;;;;;47.28;6.45;;;6.30;99.90;;;;;;5032629;28;20088;-47
2024/01/25 04:51:50;;;;;;;51.75;6.82;;;6.20;99.90;;;;;;5032117;28;20498;-48
2024/01/25 04:54:16;;;;;;;49.83;7.68;;;6.20;99.90;;;;;;5034459;28;20542;-48
2024/01/25 04:56:42;;;;;;;45.15;7.18;;;6.20;99.90;;;;;;5033854;28;20052;-47
2024/01/25 04:59:08;;;;;;;53.10;6.50;;;6.10;99.90;;;;;;5029329;28;20076;-49
2024/01/25 05:01:33;;;;;;;57.20;9.00;;;6.10;99.90;;;;;;5030120;28;20457;-48
2024/01/25 05:04:00;;;;;;;65.18;8.20;;;6.10;99.90;;;;;;5030881;28;20048;-49
2024/01/25 05:06:25;;;;;;;54.15;7.93;;;6.10;99.90;;;;;;5034353;28;20485;-49
2024/01/25 05:08:51;;;;;;;47.95;5.88;;;6.00;99.90;;;;;;5034014;28;20025;-48
2024/01/25 05:11:17;;;;;;;52.50;5.60;;;6.00;99.90;;;;;;5033630;28;20026;-47
2024/01/25 05:13:44;;;;;;;50.53;6.88;;;6.10;99.90;;;;;;5030103;28;20081;-47
2024/01/25 05:16:09;;;;;;;46.35;7.57;;;6.10;99.90;;;;;;5034325;28;20188;-49
2024/01/25 05:18:35;;;;;;;43.67;6.40;;;6.10;99.90;;;;;;5032553;28;20034;-48
2024/01/25 05:21:00;;;;;;;52.75;6.85;;;6.20;99.90;;;;;;5032385;28;20032;-47
2024/01/25 05:23:26;;;;;;;56.08;6.32;;;6.20;99.90;;;;;;5023828;28;20112;-49
2024/01/25 05:25:52;;;;;;;43.13;7.78;;;6.20;99.90;;;;;;5034081;28;20087;-48
2024/01/25 05:28:18;;;;;;;40.85;7.57;;;6.30;99.90;;;;;;5031839;28;20040;-48
2024/01/25 05:30:43;;;;;;;54.17;6.90;;;6.30;99.90;;;;;;5031279;28;20037;-48
2024/01/25 05:33:09;;;;;;;37.35;6.40;;;6.30;99.90;;;;;;5029138;28;20033;-48
2024/01/25 05:35:35;;;;;;;49.35;7.90;;;6.30;99.90;;;;;;5032540;28;20096;-48
2024/01/25 05:38:01;;;;;;;35.88;9.88;;;6.20;99.90;;;;;;5031565;28;20551;-48
2024/01/25 05:40:26;;;;;;;49.85;7.95;;;6.20;99.90;;;;;;5030988;28;20026;-47
2024/01/25 05:42:52;;;;;;;46.97;6.72;;;6.10;99.90;;;;;;5031257;28;20036;-47
2024/01/25 05:45:20;;;;;;;55.00;7.30;;;6.00;99.90;;;;;;5029200;28;20021;-48
2024/01/25 05:47:47;;;;;;;50.30;7.82;;;5.90;99.90;;;;;;5032581;28;20384;-47
2024/01/25 05:50:12;;;;;;;47.33;9.15;;;5.80;99.90;;;;;;5031583;28;20013;-47
2024/01/25 05:52:38;;;;;;;49.83;7.68;;;5.70;99.90;;;;;;5032848;28;20036;-48
2024/01/25 05:55:05;;;;;;;49.17;8.35;;;5.70;99.90;;;;;;5030802;28;20076;-47
2024/01/25 05:57:30;;;;;;;40.20;6.88;;;5.60;99.90;;;;;;5031205;28;20028;-49
2024/01/25 05:59:56;;;;;;;51.67;7.18;;;5.50;99.90;;;;;;5032308;28;20026;-47
2024/01/25 06:02:21;;;;;;;54.08;6.78;;;5.50;99.90;;;;;;5033529;28;20026;-49
2024/01/25 06:04:47;;;;;;;46.78;6.70;;;5.40;99.90;;;;;;5027192;28;20033;-49
2024/01/25 06:07:12;;;;;;;53.92;8.70;;;5.30;99.90;;;;;;5030838;28;20028;-48
2024/01/25 06:09:38;;;;;;;51.75;6.85;;;5.20;99.90;;;;;;5032718;28;20025;-53
2024/01/25 06:12:04;;;;;;;46.78;7.25;;;5.10;99.90;;;;;;5034129;28;20078;-50
2024/01/25 06:14:30;;;;;;;54.58;7.65;;;5.10;99.90;;;;;;5032803;28;20029;-49
2024/01/25 06:16:56;;;;;;;44.72;8.75;;;5.00;99.90;;;;;;5029769;28;20183;-47
2024/01/25 06:19:22;;;;;;;58.50;8.02;;;4.90;99.90;;;;;;5033906;28;20127;-48
2024/01/25 06:21:47;;;;;;;57.05;7.25;;;4.80;99.90;;;;;;5031608;28;20128;-50
2024/01/25 06:24:13;;;;;;;57.58;6.60;;;4.80;99.90;;;;;;5029056;28;20060;-48
2024/01/25 06:26:38;;;;;;;61.33;8.68;;;4.70;99.90;;;;;;5031090;28;20508;-49
2024/01/25 06:29:04;;;;;;;41.95;7.30;;;4.70;99.90;;;;;;5029608;28;20025;-48
2024/01/25 06:31:30;;;;;;;48.25;7.38;;;4.60;99.90;;;;;;5030419;28;20028;-47
2024/01/25 06:33:56;;;;;;;55.00;8.05;;;4.60;99.90;;;;;;5032846;28;20044;-47
2024/01/25 06:36:22;;;;;;;29.40;6.50;;;4.50;99.90;;;;;;5029034;28;20096;-48
2024/01/25 06:38:48;;;;;;;70.47;9.35;;;4.50;99.90;;;;;;5030385;28;20037;-48
2024/01/25 06:41:15;;;;;;;57.78;8.80;;;4.40;99.90;;;;;;5030848;28;20030;-47
2024/01/25 06:43:40;;;;;;;42.25;9.27;;;4.40;99.90;;;;;;5033143;28;20056;-49
2024/01/25 06:46:07;;;;;;;56.55;8.23;;;4.30;99.90;;;;;;5029146;28;20480;-48
2024/01/25 06:48:33;;;;;;;50.53;8.32;;;4.30;99.90;;;;;;5030636;28;20025;-48
2024/01/25 06:50:58;;;;;;;56.47;9.93;;;4.20;99.90;;;;;;5030917;28;20075;-47
2024/01/25 06:53:24;;;;;;;63.28;9.93;;;4.20;99.90;;;;;;5031087;28;20033;-46
2024/01/25 06:55:50;;;;;;;75.00;11.40;;;4.20;99.90;;;;;;5029695;28;20033;-48
2024/01/25 06:58:15;;;;;;;53.28;11.13;;;4.20;99.90;;;;;;5028929;28;20390;-49
2024/01/25 07:00:42;;;;;;;55.33;10.93;;;4.20;99.90;;;;;;5030891;28;20049;-48
2024/01/25 07:03:08;;;;;;;46.45;9.13;;;4.20;99.90;;;;;;5031466;28;20483;-47
2024/01/25 07:05:35;;;;;;;52.58;9.27;;;4.20;99.90;;;;;;5032303;28;20096;-48
2024/01/25 07:08:04;;;;;;;49.38;9.10;;;4.20;99.90;;;;;;5029065;28;20052;-48
2024/01/25 07:10:30;;;;;;;58.85;9.00;;;4.20;99.90;;;;;;5030991;28;20075;-47
2024/01/25 07:12:55;;;;;;;57.10;10.05;;;4.30;99.90;;;;;;5029744;28;20029;-50
2024/01/25 07:15:21;;;;;;;57.50;10.55;;;4.30;99.90;;;;;;5026004;28;20502;-46
2024/01/25 07:17:47;;;;;;;65.65;9.73;;;4.30;99.90;;;;;;5025544;28;20103;-50
2024/01/25 07:20:13;;;;;;;57.05;9.80;;;4.30;99.90;;;;;;5029710;28;20021;-47
2024/01/25 07:22:39;;;;;;;66.78;12.77;;;4.30;99.90;;;;;;5033379;28;20025;-48
2024/01/25 07:25:05;;;;;;;62.10;9.70;;;4.40;99.90;;;;;;5070228;28;20512;-47
2024/01/25 07:27:31;;;;;;;65.10;10.18;;;4.40;99.90;;;;;;5081897;22;20047;-85
2024/01/25 07:29:56;;;;;;;50.50;8.48;;;4.40;99.90;;;;;;5061578;28;20397;-85
2024/01/25 07:32:24;;;;;;;58.92;9.68;;;4.40;99.90;;;;;;5064021;28;20013;-85
2024/01/25 07:34:49;;;;;;;56.05;8.93;;;4.50;99.90;;;;;;5067467;28;20024;-84
2024/01/25 07:37:16;;;;;;;56.20;8.63;;;4.50;99.90;;;;;;5051389;28;20017;-84
2024/01/25 07:39:41;;;;;;;57.58;9.98;;;4.50;99.90;;;;;;5045789;28;20047;-83
2024/01/25 07:42:07;;;;;;;58.65;8.35;;;4.60;99.90;;;;;;5041170;28;20078;-85
2024/01/25 07:44:32;;;;;;;60.15;9.82;;;4.60;99.90;;;;;;5057680;28;20208;-85
2024/01/25 07:46:58;;;;;;;55.30;9.07;;;4.60;99.90;;;;;;5043976;28;20044;-83
2024/01/25 07:49:24;;;;;;;55.45;8.68;;;4.70;99.90;;;;;;5046854;28;20019;-84
2024/01/25 07:51:49;;;;;;;52.03;9.70;;;4.70;99.90;;;;;;5039006;28;20036;-84
2024/01/25 07:54:15;;;;;;;45.97;8.07;;;4.80;99.90;;;;;;5054003;28;20043;-83
2024/01/25 07:56:41;;;;;;;58.30;8.85;;;4.90;99.90;;;;;;5038588;28;20033;-85
2024/01/25 07:59:07;;;;;;;62.70;10.52;;;5.00;99.90;;;;;;5046329;28;20021;-84
2024/01/25 08:01:32;;;;;;;51.65;10.57;;;5.00;99.90;;;;;;5056409;28;20025;-84
2024/01/25 08:03:59;;;;;;;55.47;9.52;;;5.10;99.90;;;;;;5058436;28;20391;-84
2024/01/25 08:06:26;;;;;;;58.92;9.20;;;5.20;99.90;;;;;;5040269;28;20017;-85
2024/01/25 08:08:52;;;;;;;52.42;10.00;;;5.20;99.90;;;;;;5038316;28;20029;-85
2024/01/25 08:11:19;;;;;;;58.17;9.55;;;5.30;99.90;;;;;;5055682;28;20080;-83
2024/01/25 08:13:47;;;;;;;61.72;9.57;;;5.40;99.90;;;;;;5057828;28;20135;-83
2024/01/25 08:16:13;;;;;;;54.72;10.38;;;5.50;99.90;;;;;;5059653;28;20043;-85
2024/01/25 08:18:39;;;;;;;57.38;10.77;;;5.70;99.90;;;;;;5039741;28;20415;-84
2024/01/25 08:21:05;;;;;;;39.78;7.93;;;5.80;99.90;;;;;;5049343;28;20070;-84
2024/01/25 08:23:31;;;;;;;46.88;10.05;;;6.00;99.90;;;;;;5037457;28;20033;-84
2024/01/25 08:25:56;;;;;;;52.70;8.98;;;6.20;99.90;;;;;;5045984;28;20024;-84
2024/01/25 08:28:22;;;;;;;64.57;9.90;;;6.30;99.90;;;;;;5062688;28;20017;-84
2024/01/25 08:30:48;;;;;;;48.30;8.38;;;6.50;99.90;;;;;;5036822;28;20135;-84
2024/01/25 08:33:13;;;;;;;48.75;7.55;;;6.60;99.90;;;;;;5019633;28;20597;-84
2024/01/25 08:35:40;;;;;;;62.00;13.02;;;6.70;99.90;;;;;;5038973;28;20033;-85
2024/01/25 08:38:06;;;;;;;42.28;8.13;;;6.70;99.90;;;;;;5044729;28;20091;-84
2024/01/25 08:40:32;;;;;;;55.80;8.60;;;6.80;99.90;;;;;;5064570;28;20020;-85
2024/01/25 08:42:58;;;;;;;40.25;8.57;;;6.90;99.90;;;;;;5038692;28;20028;-85
2024/01/25 08:45:24;;;;;;;46.40;8.07;;;7.00;99.90;;;;;;5054929;28;20055;-84
2024/01/25 08:47:51;;;;;;;43.20;6.82;;;7.00;99.90;;;;;;5055195;28;20087;-84
2024/01/25 08:50:16;;;;;;;46.90;8.88;;;7.10;99.90;;;;;;5038947;28;20027;-84
2024/01/25 08:52:42;;;;;;;39.13;7.30;;;7.10;99.90;;;;;;5034000;28;20033;-85
2024/01/25 08:55:09;;;;;;;49.58;10.13;;;7.10;99.90;;;;;;5060052;28;20048;-85
2024/01/25 08:57:35;;;;;;;43.13;8.52;;;7.10;99.90;;;;;;5054796;28;20103;-85
2024/01/25 09:00:01;;;;;;;50.65;8.13;;;7.20;99.90;;;;;;5056413;28;20041;-84
2024/01/25 09:02:29;;;;;;;60.50;10.88;;;7.20;99.90;;;;;;5042761;28;20035;-83
2024/01/25 09:04:55;;;;;;;49.35;9.00;;;7.20;99.90;;;;;;5051622;28;20025;-84
2024/01/25 09:07:21;;;;;;;52.13;9.55;;;7.30;99.90;;;;;;5055937;28;20496;-83
2024/01/25 09:09:46;;;;;;;39.40;7.35;;;7.30;99.90;;;;;;5045753;28;20025;-84
2024/01/25 09:12:13;;;;;;;34.88;7.30;;;7.30;99.90;;;;;;5063626;28;20470;-83
2024/01/25 09:14:39;;;;;;;36.90;8.30;;;7.40;99.90;;;;;;5066744;28;20052;-84
2024/01/25 09:17:04;;;;;;;39.45;8.05;;;7.30;99.90;;;;;;5042126;28;20025;-84
2024/01/25 09:19:30;;;;;;;46.83;8.07;;;7.40;99.90;;;;;;5059497;28;20032;-84
2024/01/25 09:21:59;;;;;;;45.53;7.55;;;7.40;99.90;;;;;;5048960;28;20050;-83
2024/01/25 09:24:25;;;;;;;33.55;6.28;;;7.50;99.90;;;;;;5042068;28;20033;-84
2024/01/25 09:26:51;;;;;;;28.52;7.22;;;7.60;99.90;;;;;;5041498;28;20036;-83
2024/01/25 09:29:16;;;;;;;30.55;6.78;;;7.60;99.90;;;;;;5049668;28;20023;-83
2024/01/25 09:31:42;;;;;;;34.22;8.27;;;7.60;99.90;;;;;;5010518;28;20068;-84
2024/01/25 09:34:07;;;;;;;34.03;7.00;;;7.60;99.90;;;;;;5039059;28;20057;-84
2024/01/25 09:36:33;;;;;;;38.63;7.15;;;7.70;99.90;;;;;;5040408;28;20380;-84
2024/01/25 09:38:59;;;;;;;36.58;10.38;;;7.70;99.90;;;;;;5060191;28;20733;-83
2024/01/25 09:41:24;;;;;;;38.53;8.90;;;7.80;99.90;;;;;;5065782;28;20033;-84
2024/01/25 09:43:50;;;;;;;33.58;7.97;;;7.90;99.90;;;;;;5043536;28;20029;-84
2024/01/25 09:46:16;;;;;;;29.17;8.10;;;7.90;99.90;;;;;;5065464;23;20450;-56
2024/01/25 09:48:45;;;;;;;39.35;9.13;;;7.90;99.90;;;;;;5070347;28;20108;-53
2024/01/25 09:51:12;;;;;;;43.67;10.05;;;7.90;99.90;;;;;;5070192;28;20024;-57
2024/01/25 09:53:40;;;;;;;37.88;9.38;;;8.00;99.90;;;;;;5071491;28;20028;-56
2024/01/25 09:56:12;;;;;;;31.10;6.43;;;8.20;99.90;;;;;;5068820;28;20032;-54
2024/01/25 09:58:41;;;;;;;36.80;7.30;;;8.50;99.90;;;;;;5072708;28;20036;-55
2024/01/25 10:01:12;;;;;;;40.03;7.93;;;8.50;99.90;;;;;;5071932;28;20051;-53
2024/01/25 10:03:40;;;;;;;53.05;11.00;;;8.50;99.90;;;;;;5070559;28;20032;-57
2024/01/25 10:06:06;;;;;;;48.20;10.48;;;8.40;99.90;;;;;;5068765;28;20028;-56
2024/01/25 10:08:32;;;;;;;38.97;10.07;;;8.30;99.90;;;;;;5074985;28;20058;-55
2024/01/25 10:10:57;;;;;;;52.08;11.75;;;8.20;99.90;;;;;;5072733;28;20048;-57
2024/01/25 10:13:23;;;;;;;45.55;10.30;;;8.10;99.90;;;;;;5071777;28;20029;-56
2024/01/25 10:15:48;;;;;;;45.72;9.55;;;8.10;99.90;;;;;;5075754;28;20119;-55
2024/01/25 10:18:15;;;;;;;52.40;11.15;;;8.20;99.90;;;;;;5070267;28;20067;-55
2024/01/25 10:20:42;;;;;;;46.58;10.65;;;8.20;99.90;;;;;;5068508;28;20403;-52
2024/01/25 10:23:08;;;;;;;51.80;11.75;;;8.20;99.90;;;;;;5070647;28;20498;-55
2024/01/25 10:25:38;;;;;;;60.42;11.52;;;8.30;99.90;;;;;;5071224;28;20486;-56
2024/01/25 10:28:07;;;;;;;41.20;8.95;;;8.30;99.90;;;;;;5071822;28;20494;-56
2024/01/25 10:30:34;;;;;;;40.70;8.95;;;8.40;99.90;;;;;;5069227;28;20033;-55
2024/01/25 10:33:01;;;;;;;44.25;10.27;;;8.50;99.90;;;;;;5054422;28;20060;-56
2024/01/25 10:35:27;;;;;;;75.45;15.15;;;8.60;99.90;;;;;;5068436;28;20029;-56
2024/01/25 10:37:53;;;;;;;51.63;10.57;;;8.70;99.90;;;;;;5070307;28;20032;-56
2024/01/25 10:40:20;;;;;;;38.38;9.50;;;8.80;99.90;;;;;;5066494;28;20429;-54
2024/01/25 10:42:46;;;;;;;54.50;10.02;;;8.90;99.90;;;;;;5070679;28;20040;-56
2024/01/25 10:45:12;;;;;;;71.05;16.58;;;8.90;99.90;;;;;;5069286;28;20090;-55
2024/01/25 10:47:40;;;;;;;46.58;10.15;;;9.00;99.90;;;;;;5068694;28;20813;-56
2024/01/25 10:50:10;;;;;;;44.80;9.70;;;8.90;99.90;;;;;;5072652;28;20107;-56
2024/01/25 10:52:37;;;;;;;43.17;10.88;;;9.00;99.90;;;;;;5069043;28;20035;-56
2024/01/25 10:55:04;;;;;;;34.55;9.23;;;9.10;99.90;;;;;;5068110;28;20501;-57
2024/01/25 10:57:43;;;;;;;57.45;12.57;;;9.10;99.90;;;;;;5065754;28;20060;-57
2024/01/25 11:00:14;;;;;;;45.20;10.85;;;9.10;99.90;;;;;;5070704;28;20029;-54
2024/01/25 11:02:40;;;;;;;40.20;10.38;;;9.10;99.90;;;;;;5068794;28;20371;-56
2024/01/25 11:05:10;;;;;;;43.75;10.52;;;9.10;99.90;;;;;;5073696;28;20039;-56
2024/01/25 11:07:49;;;;;;;44.38;8.48;;;9.10;99.90;;;;;;5065642;28;20093;-57
2024/01/25 11:10:19;;;;;;;50.05;11.32;;;9.10;99.90;;;;;;5064576;28;20033;-54
2024/01/25 11:13:03;;;;;;;48.25;11.40;;;9.20;99.90;;;;;;5068120;28;20032;-54
2024/01/25 11:15:36;;;;;;;56.13;14.10;;;9.30;99.90;;;;;;5067807;28;20036;-57
2024/01/25 11:18:03;;;;;;;49.65;12.10;;;9.30;99.90;;;;;;5068408;28;20082;-57
2024/01/25 11:20:30;;;;;;;38.40;12.82;;;9.40;99.90;;;;;;5068898;28;20056;-57
2024/01/25 11:23:03;;;;;;;48.78;11.02;;;9.40;99.90;;;;;;5068531;28;20056;-54
2024/01/25 11:25:33;;;;;;;43.50;10.55;;;9.50;99.90;;;;;;5069656;28;20037;-56
2024/01/25 11:28:03;;;;;;;44.95;9.13;;;9.60;99.90;;;;;;5069406;28;20096;-56
2024/01/25 11:30:32;;;;;;;37.28;9.15;;;9.70;99.90;;;;;;5065759;28;20091;-55
2024/01/25 11:32:57;;;;;;;41.10;9.68;;;9.70;99.90;;;;;;5046547;28;20112;-54
2024/01/25 11:35:23;;;;;;;48.47;12.95;;;9.60;99.90;;;;;;5069430;28;20107;-57
2024/01/25 11:37:51;;;;;;;39.70;9.27;;;9.50;99.90;;;;;;5066760;28;20033;-57
2024/01/25 11:40:17;;;;;;;45.05;10.93;;;9.40;99.90;;;;;;5070563;28;20052;-55
2024/01/25 11:42:44;;;;;;;44.28;9.95;;;9.50;99.90;;;;;;5068520;28;20068;-56
2024/01/25 11:45:11;;;;;;;57.45;20.67;;;9.50;99.90;;;;;;5063435;28;20497;-57
2024/01/25 11:47:41;;;;;;;43.03;11.13;;;9.70;99.90;;;;;;5065589;28;20047;-54
2024/01/25 11:50:08;;;;;;;37.10;8.93;;;9.80;99.90;;;;;;5067661;28;20024;-53
2024/01/25 11:52:34;;;;;;;64.45;17.85;;;9.90;99.90;;;;;;5067157;28;20096;-57
2024/01/25 11:55:06;;;;;;;48.50;9.60;;;9.90;99.90;;;;;;5067899;28;20111;-55
2024/01/25 11:57:35;;;;;;;61.08;14.77;;;9.80;99.90;;;;;;5073680;28;20683;-55
2024/01/25 12:00:01;;;;;;;38.65;7.88;;;9.90;99.90;;;;;;5068986;28;20074;-55
2024/01/25 12:02:27;;;;;;;36.22;9.07;;;10.00;99.90;;;;;;5063849;28;20475;-56
2024/01/25 12:04:55;;;;;;;55.72;16.27;;;10.00;99.90;;;;;;5068582;28;20021;-56
2024/01/25 12:07:21;;;;;;;37.33;10.98;;;10.00;99.90;;;;;;5063719;28;20029;-56
2024/01/25 12:10:02;;;;;;;41.63;10.52;;;10.10;99.90;;;;;;5067610;28;20036;-56
2024/01/25 12:12:28;;;;;;;41.00;9.70;;;10.10;99.90;;;;;;5065122;28;20029;-57
2024/01/25 12:15:00;;;;;;;42.90;9.25;;;10.20;99.90;;;;;;5067971;28;20020;-56
2024/01/25 12:17:30;;;;;;;48.58;10.30;;;10.30;99.90;;;;;;5066082;28;20032;-57
2024/01/25 12:19:56;;;;;;;38.20;9.13;;;10.30;99.90;;;;;;5063559;28;20451;-57
2024/01/25 12:22:24;;;;;;;30.45;9.10;;;10.20;99.90;;;;;;5062499;28;20024;-54
2024/01/25 12:24:54;;;;;;;40.60;8.63;;;10.20;99.90;;;;;;5064774;28;20029;-57
2024/01/25 12:27:22;;;;;;;48.30;7.32;;;10.20;99.90;;;;;;5065155;28;20430;-56
2024/01/25 12:29:48;;;;;;;29.98;7.18;;;10.20;99.90;;;;;;5068870;28;20028;-57
2024/01/25 12:32:13;;;;;;;28.45;8.48;;;10.30;99.90;;;;;;5048598;28;20450;-56
2024/01/25 12:34:41;;;;;;;30.33;8.52;;;10.40;99.90;;;;;;5072020;28;20055;-56
2024/01/25 12:37:07;;;;;;;37.78;9.23;;;10.30;99.90;;;;;;5070114;28;20024;-56
2024/01/25 12:39:32;;;;;;;34.97;8.85;;;10.30;99.90;;;;;;5070520;28;20036;-55
2024/01/25 12:41:58;;;;;;;41.95;11.63;;;10.30;99.90;;;;;;5072507;28;20024;-55